Time;durP1;ratioP1;P1;durP2;ratioP2;P2;SDS_P1;SDS_P2;PMS_P1;PMS_P2;Temp;Humidity;BMP_temperature;BMP_pressure;BME280_temperature;BME280_humidity;BME280_pressure;Samples;Min_cycle;Max_cycle;Signal;HPM_P1;HPM_P2
2023/01/05 00:04:24;;;;;;;3.02;1.10;;;;;;;8.57;100.00;99551.92;5015249;57;1136872;-72
2023/01/05 00:09:30;;;;;;;1.33;0.80;;;;;;;8.60;100.00;99540.30;5063742;57;1136679;-71
2023/01/05 00:25:28;;;;;;;1.57;0.90;;;;;;;8.63;100.00;99529.02;5029855;57;1248934;-69
2023/01/05 00:30:40;;;;;;;3.83;1.10;;;;;;;8.64;100.00;99526.73;5054973;56;1136822;-71
2023/01/05 00:35:48;;;;;;;1.17;0.87;;;;;;;8.64;100.00;99521.45;5000024;56;1136721;-70
2023/01/05 00:40:54;;;;;;;1.63;0.90;;;;;;;8.64;100.00;99506.97;4987226;57;1136834;-73
2023/01/05 00:46:00;;;;;;;1.43;1.00;;;;;;;8.63;100.00;99500.02;5044160;57;1136742;-71
2023/01/05 00:51:06;;;;;;;0.93;0.90;;;;;;;8.61;100.00;99502.43;5063774;57;1136969;-72
2023/01/05 00:56:12;;;;;;;5.30;1.13;;;;;;;8.59;100.00;99504.36;5061327;57;1136710;-67
2023/01/05 01:01:20;;;;;;;2.00;0.90;;;;;;;8.57;100.00;99517.66;5033497;57;1136893;-73
2023/01/05 01:06:25;;;;;;;1.82;0.72;;;;;;;8.55;100.00;99514.83;4969408;58;1136856;-69
2023/01/05 01:11:31;;;;;;;0.98;0.50;;;;;;;8.55;100.00;99497.70;4946315;58;1136929;-67
2023/01/05 01:16:37;;;;;;;0.30;0.30;;;;;;;8.54;100.00;99514.48;4953224;58;1136660;-68
2023/01/05 01:21:45;;;;;;;0.50;0.47;;;;;;;8.50;100.00;99501.20;5011131;57;1136853;-68
2023/01/05 01:26:51;;;;;;;3.58;0.50;;;;;;;8.42;100.00;99505.79;4930831;57;1136632;-74
2023/01/05 01:31:56;;;;;;;0.42;0.35;;;;;;;8.32;100.00;99511.50;4962826;57;1136874;-69
2023/01/05 01:37:02;;;;;;;1.65;1.25;;;;;;;8.19;100.00;99518.25;4935668;57;1136775;-71
2023/01/05 01:42:16;;;;;;;1.77;0.30;;;;;;;8.09;100.00;99508.97;4973424;57;1136820;-71
2023/01/05 01:47:48;;;;;;;4.00;0.47;;;;;;;7.99;100.00;99497.99;4870901;58;1136705;-72
2023/01/05 01:53:02;;;;;;;0.20;0.20;;;;;;;7.93;100.00;99490.63;4994131;57;1248487;-72
2023/01/05 01:58:12;;;;;;;3.47;0.33;;;;;;;7.88;100.00;99496.74;5003912;57;1137359;-71
2023/01/05 02:03:19;;;;;;;3.40;0.33;;;;;;;7.83;100.00;99489.22;4970001;57;1137011;-68
2023/01/05 02:08:30;;;;;;;1.13;0.50;;;;;;;7.75;100.00;99488.55;4906112;57;1136746;-70
2023/01/05 02:14:19;;;;;;;1.30;0.30;;;;;;;7.70;100.00;99492.51;4844847;58;1136979;-74
2023/01/05 02:19:53;;;;;;;1.27;0.40;;;;;;;7.67;100.00;99490.95;4995291;57;1136716;-72
2023/01/05 02:25:35;;;;;;;1.10;0.33;;;;;;;7.67;100.00;99487.48;4995279;57;1136828;-69
2023/01/05 02:31:03;;;;;;;1.30;0.40;;;;;;;7.67;100.00;99495.38;4958224;57;1136794;-72
2023/01/05 02:36:29;;;;;;;0.80;0.33;;;;;;;7.65;100.00;99475.77;5013009;56;1136686;-66
2023/01/05 02:41:41;;;;;;;0.10;0.10;;;;;;;7.65;100.00;99475.77;5026896;56;1136604;-69
2023/01/05 02:46:49;;;;;;;0.45;0.30;;;;;;;7.62;100.00;99482.63;5096920;56;1136757;-72
2023/01/05 02:51:58;;;;;;;1.30;0.53;;;;;;;7.64;100.00;99487.25;5054111;56;1136824;-69
2023/01/05 02:57:45;;;;;;;0.85;0.23;;;;;;;7.63;100.00;99482.98;4999467;56;1136739;-69
2023/01/05 03:02:32;;;;;;;2.10;0.50;;;;;;;7.65;100.00;99467.87;5038739;56;1136704;-72
2023/01/05 03:07:42;;;;;;;2.40;0.60;;;;;;;7.68;100.00;99474.69;5121884;56;1136784;-71
2023/01/05 03:18:20;;;;;;;2.00;0.93;;;;;;;7.73;100.00;99478.62;5124069;56;1136704;-68
2023/01/05 03:40:16;;;;;;;7.03;0.90;;;;;;;7.94;100.00;99485.72;5023892;57;1136734;-68
2023/01/05 03:45:26;;;;;;;0.95;0.47;;;;;;;7.97;100.00;99463.05;5043492;57;1136749;-69
2023/01/05 03:50:32;;;;;;;2.17;0.70;;;;;;;8.00;100.00;99466.75;5062895;56;1136605;-68
2023/01/05 03:55:38;;;;;;;3.43;0.80;;;;;;;8.04;100.00;99462.91;5004180;57;1136648;-69
2023/01/05 04:00:47;;;;;;;1.87;0.87;;;;;;;8.08;100.00;99473.06;5043389;57;1136676;-70
2023/01/05 04:05:53;;;;;;;2.57;0.90;;;;;;;8.11;100.00;99473.27;5147858;56;1136653;-74
2023/01/05 04:11:18;;;;;;;3.83;0.63;;;;;;;8.11;100.00;99467.52;5087120;56;1136674;-72
2023/01/05 04:16:27;;;;;;;3.67;1.13;;;;;;;8.11;100.00;99480.69;5126036;56;1136761;-69
2023/01/05 04:21:34;;;;;;;3.17;0.70;;;;;;;8.13;100.00;99468.70;5147738;56;1136707;-70
2023/01/05 04:26:41;;;;;;;5.27;0.90;;;;;;;8.17;100.00;99474.08;5127515;56;1136574;-73
2023/01/05 04:31:47;;;;;;;3.73;1.20;;;;;;;8.17;100.00;99465.34;5121307;56;1136740;-73
2023/01/05 04:36:53;;;;;;;2.20;0.80;;;;;;;8.15;100.00;99470.73;5062537;57;1136807;-70
2023/01/05 04:41:59;;;;;;;5.33;0.90;;;;;;;8.13;100.00;99468.23;5043203;57;1136743;-70
2023/01/05 04:47:06;;;;;;;6.67;1.27;;;;;;;8.17;100.00;99472.77;5043325;56;1136715;-68
2023/01/05 04:52:13;;;;;;;4.03;0.90;;;;;;;8.22;100.00;99476.33;5062394;57;1136551;-68
2023/01/05 04:57:21;;;;;;;5.97;1.37;;;;;;;8.22;100.00;99477.65;5043302;57;1136604;-70
2023/01/05 05:02:27;;;;;;;12.20;1.57;;;;;;;8.21;100.00;99479.93;5069494;56;1146254;-67
2023/01/05 05:07:34;;;;;;;3.40;2.20;;;;;;;8.20;100.00;99481.73;5119628;56;1138934;-69
2023/01/05 05:12:41;;;;;;;4.33;1.23;;;;;;;8.22;100.00;99473.22;5062045;56;1136764;-72
2023/01/05 05:17:48;;;;;;;5.23;0.93;;;;;;;8.27;100.00;99467.54;5064695;56;1136956;-68
2023/01/05 05:22:55;;;;;;;3.40;0.97;;;;;;;8.29;100.00;99466.45;5053304;55;1136807;-69
2023/01/05 05:28:01;;;;;;;4.00;1.10;;;;;;;8.32;100.00;99468.86;5067938;56;1136579;-72
2023/01/05 05:33:07;;;;;;;2.93;1.50;;;;;;;8.36;100.00;99468.96;5042540;56;1136706;-69
2023/01/05 05:38:13;;;;;;;8.73;1.40;;;;;;;8.40;100.00;99478.25;5043014;56;1136871;-69
2023/01/05 05:43:19;;;;;;;5.07;1.17;;;;;;;8.42;100.00;99484.71;5066710;56;1136785;-69
2023/01/05 05:48:25;;;;;;;8.10;1.20;;;;;;;8.38;100.00;99485.95;5080426;56;1136699;-72
2023/01/05 05:53:31;;;;;;;13.70;2.20;;;;;;;8.39;100.00;99499.48;5039094;56;1136768;-69
2023/01/05 05:58:37;;;;;;;9.63;2.57;;;;;;;8.42;100.00;99506.63;5101813;56;1138735;-69
2023/01/05 06:03:42;;;;;;;6.63;1.20;;;;;;;8.41;100.00;99519.45;5087770;56;1136640;-70
2023/01/05 06:08:50;;;;;;;4.83;0.57;;;;;;;8.37;100.00;99515.91;5047624;55;1136734;-71
2023/01/05 06:13:55;;;;;;;4.10;1.43;;;;;;;8.39;100.00;99521.41;5039926;55;1136707;-71
2023/01/05 06:19:02;;;;;;;7.17;1.00;;;;;;;8.39;100.00;99516.61;5112624;56;1136698;-71
2023/01/05 06:24:08;;;;;;;6.23;2.03;;;;;;;8.38;100.00;99526.31;5065976;56;1136671;-69
2023/01/05 06:29:14;;;;;;;2.67;0.70;;;;;;;8.34;100.00;99539.86;5095570;56;1136948;-70
2023/01/05 06:34:20;;;;;;;4.72;1.30;;;;;;;8.28;100.00;99554.82;5059235;55;1136755;-72
2023/01/05 06:39:26;;;;;;;3.90;0.98;;;;;;;8.23;100.00;99547.81;5076532;56;1136591;-69
2023/01/05 06:44:32;;;;;;;1.37;0.60;;;;;;;8.21;100.00;99549.73;5091479;56;1136769;-71
2023/01/05 06:49:39;;;;;;;6.53;1.15;;;;;;;8.17;100.00;99551.77;5089102;56;1136771;-68
2023/01/05 06:54:45;;;;;;;3.73;0.80;;;;;;;8.14;100.00;99549.39;5090476;56;1136723;-69
2023/01/05 06:59:50;;;;;;;7.77;1.03;;;;;;;8.14;100.00;99558.61;5070034;56;1136856;-70
2023/01/05 07:04:56;;;;;;;1.83;0.83;;;;;;;8.11;100.00;99565.44;5052612;56;1136711;-70
2023/01/05 07:10:02;;;;;;;7.37;1.60;;;;;;;8.02;100.00;99572.31;5127035;56;1136575;-73
2023/01/05 07:15:09;;;;;;;4.40;0.90;;;;;;;7.96;100.00;99585.97;5039791;56;1136608;-70
2023/01/05 07:20:15;;;;;;;5.70;1.10;;;;;;;7.91;100.00;99590.80;5039551;56;1136636;-68
2023/01/05 07:25:21;;;;;;;5.47;1.25;;;;;;;7.88;100.00;99603.36;5115117;56;1136706;-69
2023/01/05 07:30:28;;;;;;;4.60;1.15;;;;;;;7.84;100.00;99604.56;5041820;56;1136919;-71
2023/01/05 07:35:34;;;;;;;6.63;1.00;;;;;;;7.81;100.00;99606.12;5060547;56;1136920;-68
2023/01/05 07:40:40;;;;;;;6.17;1.17;;;;;;;7.79;100.00;99602.80;5126354;56;1136678;-66
2023/01/05 07:45:47;;;;;;;4.40;1.37;;;;;;;7.78;100.00;99608.55;5051863;56;1136745;-72
2023/01/05 07:50:55;;;;;;;8.20;2.13;;;;;;;7.78;100.00;99613.81;5096018;56;1136635;-68
2023/01/05 07:56:02;;;;;;;7.25;1.45;;;;;;;7.79;100.00;99629.13;5057030;56;1136706;-68
2023/01/05 08:01:11;;;;;;;5.93;1.03;;;;;;;7.83;100.00;99625.26;5063264;56;1136654;-70
2023/01/05 08:06:19;;;;;;;6.92;1.72;;;;;;;7.89;100.00;99647.99;5100046;56;1136649;-70
2023/01/05 08:11:25;;;;;;;5.65;1.40;;;;;;;7.98;100.00;99647.23;5046325;56;1136697;-68
2023/01/05 08:16:33;;;;;;;12.28;1.65;;;;;;;8.04;100.00;99657.29;5062394;56;1136579;-71
2023/01/05 08:21:38;;;;;;;6.83;1.67;;;;;;;8.09;100.00;99658.24;5085581;56;1138759;-72
2023/01/05 08:26:44;;;;;;;15.00;3.80;;;;;;;8.11;100.00;99662.41;5047876;56;1136634;-69
2023/01/05 08:31:50;;;;;;;5.53;1.40;;;;;;;8.15;100.00;99674.84;5073102;56;1138732;-73
2023/01/05 08:36:56;;;;;;;6.10;1.20;;;;;;;8.17;100.00;99680.00;5038176;56;1136750;-67
2023/01/05 08:42:02;;;;;;;7.67;1.40;;;;;;;8.18;100.00;99685.62;5046860;56;1136840;-69
2023/01/05 08:47:08;;;;;;;4.83;1.23;;;;;;;8.20;100.00;99675.32;5062148;56;1136578;-72
2023/01/05 08:52:14;;;;;;;4.42;1.47;;;;;;;8.20;100.00;99690.28;5053089;56;1136800;-69
2023/01/05 08:57:20;;;;;;;8.57;1.50;;;;;;;8.11;100.00;99691.38;5055538;56;1136794;-70
2023/01/05 09:02:26;;;;;;;8.53;1.07;;;;;;;8.07;100.00;99686.02;5079429;56;1136776;-71
2023/01/05 09:07:32;;;;;;;22.65;4.08;;;;;;;8.05;100.00;99703.73;5076802;56;1136790;-69
2023/01/05 09:12:39;;;;;;;6.00;1.47;;;;;;;8.06;100.00;99701.94;5062532;56;1139029;-69
2023/01/05 09:17:45;;;;;;;3.20;0.80;;;;;;;8.09;100.00;99710.44;5076691;56;1136651;-67
2023/01/05 09:22:50;;;;;;;5.40;1.07;;;;;;;8.11;100.00;99720.81;5059797;56;1137004;-71
2023/01/05 09:27:56;;;;;;;3.87;1.23;;;;;;;8.09;100.00;99720.13;5043618;56;1134694;-67
2023/01/05 09:33:01;;;;;;;5.27;1.53;;;;;;;8.06;100.00;99715.94;5051246;56;1136920;-68
2023/01/05 09:38:07;;;;;;;3.95;1.02;;;;;;;7.96;100.00;99695.23;5070982;56;1136741;-71
2023/01/05 09:43:22;;;;;;;7.07;1.80;;;;;;;8.04;100.00;99721.80;5056828;56;1136863;-68
2023/01/05 09:48:30;;;;;;;4.77;1.37;;;;;;;8.02;100.00;99714.50;5064280;56;1134601;-70
2023/01/05 09:53:37;;;;;;;10.80;1.80;;;;;;;8.02;100.00;99705.77;5061557;56;1136723;-69
2023/01/05 09:58:44;;;;;;;5.30;1.20;;;;;;;8.03;100.00;99712.23;5059416;56;1138804;-69
2023/01/05 10:04:01;;;;;;;5.77;0.93;;;;;;;8.06;100.00;99709.84;5045096;56;1134759;-70
2023/01/05 10:09:10;;;;;;;6.22;0.62;;;;;;;8.07;100.00;99690.45;5068761;56;1136721;-69
2023/01/05 10:14:23;;;;;;;5.07;1.63;;;;;;;8.21;100.00;99690.64;5076146;55;1134686;-70
2023/01/05 10:19:30;;;;;;;5.35;1.05;;;;;;;8.30;100.00;99684.62;5052139;56;1134711;-69
2023/01/05 10:24:45;;;;;;;6.87;0.90;;;;;;;8.40;100.00;99686.40;5066412;56;1134634;-68
2023/01/05 10:30:11;;;;;;;8.53;1.87;;;;;;;8.52;100.00;99677.16;5087338;56;1136792;-68
2023/01/05 10:35:29;;;;;;;3.33;0.80;;;;;;;8.54;100.00;99670.80;5024086;56;1134504;-67
2023/01/05 10:41:19;;;;;;;43.67;3.77;;;;;;;8.54;100.00;99675.23;5044096;55;1134702;-70
2023/01/05 10:46:25;;;;;;;5.40;1.03;;;;;;;8.49;100.00;99672.97;5065392;56;1138844;-69
2023/01/05 10:51:34;;;;;;;5.25;1.62;;;;;;;8.38;100.00;99669.07;5060203;56;1134721;-70
2023/01/05 10:56:40;;;;;;;5.73;0.90;;;;;;;8.30;100.00;99674.08;5011366;57;1134816;-70
2023/01/05 11:01:49;;;;;;;6.00;1.00;;;;;;;8.25;100.00;99678.91;5000537;57;1136859;-67
2023/01/05 11:07:04;;;;;;;3.97;0.93;;;;;;;8.19;100.00;99675.44;5047424;57;1136579;-68
2023/01/05 11:12:22;;;;;;;4.30;0.80;;;;;;;8.19;100.00;99675.44;4986994;57;1134489;-72
2023/01/05 11:17:29;;;;;;;3.95;0.90;;;;;;;8.18;100.00;99678.55;5024100;56;1136781;-68
2023/01/05 11:22:38;;;;;;;2.17;0.60;;;;;;;8.15;100.00;99672.69;5037273;57;1136711;-70
2023/01/05 11:27:44;;;;;;;8.93;0.80;;;;;;;8.13;100.00;99679.40;4988355;57;1136715;-68
2023/01/05 11:32:50;;;;;;;6.97;1.00;;;;;;;8.11;100.00;99682.63;4973793;57;1136697;-70
2023/01/05 11:37:56;;;;;;;4.40;1.75;;;;;;;8.08;100.00;99678.47;5015428;57;1136854;-67
2023/01/05 11:43:11;;;;;;;3.73;0.80;;;;;;;8.03;100.00;99689.84;5025237;57;1136798;-70
2023/01/05 11:48:22;;;;;;;7.25;1.32;;;;;;;7.99;100.00;99672.61;4994299;57;1136842;-69
2023/01/05 11:53:39;;;;;;;6.55;1.00;;;;;;;7.95;100.00;99691.41;5020599;56;1136922;-68
2023/01/05 11:58:48;;;;;;;4.87;1.17;;;;;;;7.91;100.00;99700.53;5082413;56;1136941;-69
2023/01/05 12:04:14;;;;;;;5.37;0.97;;;;;;;7.84;100.00;99707.22;5059190;56;1136741;-69
2023/01/05 12:09:41;;;;;;;3.50;0.83;;;;;;;7.75;100.00;99714.91;5033743;56;1201381;-71
2023/01/05 12:14:54;;;;;;;1.17;0.40;;;;;;;7.63;100.00;99705.83;5049466;56;1137136;-68
2023/01/05 12:20:05;;;;;;;4.50;1.00;;;;;;;7.48;100.00;99714.91;5042839;56;1137003;-65
2023/01/05 12:25:20;;;;;;;1.47;0.70;;;;;;;7.37;100.00;99720.50;5069354;56;1136564;-69
2023/01/05 12:30:38;;;;;;;3.60;1.00;;;;;;;7.34;100.00;99720.73;5021189;56;1136511;-67
2023/01/05 12:36:03;;;;;;;1.23;0.47;;;;;;;7.33;100.00;99723.52;5071821;56;1136613;-71
2023/01/05 12:41:14;;;;;;;2.80;0.55;;;;;;;7.34;100.00;99715.95;5060406;56;1137026;-70
2023/01/05 12:46:53;;;;;;;1.90;0.57;;;;;;;7.36;100.00;99723.25;5067593;56;1136866;-71
2023/01/05 12:52:15;;;;;;;2.03;0.70;;;;;;;7.38;100.00;99723.50;5054276;56;1136649;-69
2023/01/05 12:57:40;;;;;;;2.30;0.60;;;;;;;7.37;100.00;99732.34;5042449;56;1136545;-69
2023/01/05 13:02:52;;;;;;;2.60;0.70;;;;;;;7.31;100.00;99739.88;5069418;56;1136614;-69
2023/01/05 13:08:14;;;;;;;0.93;0.60;;;;;;;7.28;100.00;99757.20;5086483;56;1136756;-71
2023/01/05 13:13:41;;;;;;;4.72;0.50;;;;;;;7.23;100.00;99768.54;5039339;56;1136738;-69
2023/01/05 13:19:05;;;;;;;4.43;2.13;;;;;;;7.20;100.00;99765.66;5046394;56;1136941;-67
2023/01/05 13:24:26;;;;;;;2.37;0.50;;;;;;;7.23;100.00;99777.27;5039485;56;1136964;-69
2023/01/05 13:29:37;;;;;;;5.60;0.73;;;;;;;7.23;100.00;99777.27;5039825;56;1137436;-71
2023/01/05 13:35:02;;;;;;;2.10;0.50;;;;;;;7.24;100.00;99801.78;5053602;56;1136639;-67
2023/01/05 13:40:15;;;;;;;3.63;1.00;;;;;;;7.15;100.00;99824.36;5027287;56;1136603;-66
2023/01/05 13:45:28;;;;;;;3.33;1.50;;;;;;;7.01;100.00;99842.95;5035030;56;1136865;-68
2023/01/05 13:51:19;;;;;;;1.12;0.85;;;;;;;6.84;100.00;99867.84;5060397;56;1136910;-69
2023/01/05 13:56:29;;;;;;;117.93;75.12;;;;;;;6.67;100.00;99890.07;5098353;56;1136925;-67
2023/01/05 14:01:42;;;;;;;1187.60;456.30;;;;;;;6.45;100.00;99935.03;5071072;56;1140938;-68
2023/01/05 14:06:52;;;;;;;706.30;338.57;;;;;;;6.34;100.00;99926.13;5052730;56;1147200;-71
2023/01/05 14:12:14;;;;;;;143.90;41.87;;;;;;;6.18;100.00;99974.55;5033358;55;1142961;-70
2023/01/05 14:17:53;;;;;;;64.50;26.10;;;;;;;5.92;100.00;100002.09;5050490;56;1140942;-68
2023/01/05 14:22:59;;;;;;;5.17;3.17;;;;;;;5.55;100.00;100015.43;5038833;56;1140973;-68
2023/01/05 14:28:34;;;;;;;2.60;2.33;;;;;;;5.29;100.00;100032.84;5063781;56;1136778;-67
2023/01/05 14:34:06;;;;;;;4.57;3.10;;;;;;;5.13;100.00;100054.88;5036060;56;1136723;-71
2023/01/05 14:39:26;;;;;;;1.83;1.70;;;;;;;5.04;100.00;100068.06;5048712;56;1136887;-67
2023/01/05 14:44:53;;;;;;;4.60;2.83;;;;;;;4.97;100.00;100077.27;5039943;56;1136766;-68
2023/01/05 14:50:02;;;;;;;1.90;1.33;;;;;;;4.90;100.00;100094.28;5060918;56;1136872;-72
2023/01/05 14:55:13;;;;;;;6.70;1.87;;;;;;;4.84;100.00;100118.25;5091565;56;1136912;-70
2023/01/05 15:00:26;;;;;;;1.85;1.32;;;;;;;4.83;100.00;100133.59;5087365;56;1136709;-69
2023/01/05 15:05:34;;;;;;;2.90;1.12;;;;;;;4.84;100.00;100144.45;5029381;56;1136942;-70
2023/01/05 15:11:12;;;;;;;11.60;1.60;;;;;;;4.83;100.00;100153.25;5053417;56;1136623;-70
2023/01/05 15:16:25;;;;;;;53.10;32.93;;;;;;;4.78;100.00;100168.39;4891972;57;1138872;-68
2023/01/05 15:21:51;;;;;;;202.85;99.85;;;;;;;4.74;100.00;100175.58;4851320;59;1140889;-70
2023/01/05 15:27:36;;;;;;;3.35;1.50;;;;;;;4.72;100.00;100194.96;4885136;57;1143098;-68
2023/01/05 15:32:45;;;;;;;9.83;3.17;;;;;;;4.69;100.00;100196.45;4921000;58;1136827;-69
2023/01/05 15:37:52;;;;;;;4.30;1.87;;;;;;;4.67;100.00;100212.25;4960909;58;1136713;-67
2023/01/05 15:43:03;;;;;;;2.73;1.63;;;;;;;4.64;100.00;100216.34;4961680;58;1136738;-72
2023/01/05 15:48:14;;;;;;;5.15;2.20;;;;;;;4.64;100.00;100236.45;4851059;57;1136804;-71
2023/01/05 15:53:39;;;;;;;3.80;1.15;;;;;;;4.63;100.00;100245.25;4929172;57;1136714;-70
2023/01/05 15:58:46;;;;;;;3.12;2.27;;;;;;;4.60;100.00;100258.05;4978995;57;1136879;-70
2023/01/05 16:03:51;;;;;;;3.03;1.43;;;;;;;4.58;100.00;100273.84;5010279;57;1136899;-71
2023/01/05 16:09:02;;;;;;;7.93;2.03;;;;;;;4.57;100.00;100294.91;5045704;56;1136812;-67
2023/01/05 16:14:32;;;;;;;3.10;1.40;;;;;;;4.52;100.00;100306.10;5029871;57;1136652;-67
2023/01/05 16:19:42;;;;;;;3.67;1.47;;;;;;;4.49;100.00;100315.43;5045352;56;1136574;-70
2023/01/05 16:25:12;;;;;;;5.20;2.08;;;;;;;4.45;100.00;100319.14;5045912;56;1136747;-71
2023/01/05 16:30:31;;;;;;;4.03;2.43;;;;;;;4.43;100.00;100329.70;4963927;57;1136723;-71
2023/01/05 16:35:49;;;;;;;7.47;3.17;;;;;;;4.41;100.00;100349.06;4980693;58;1136802;-67
2023/01/05 16:41:13;;;;;;;6.27;2.27;;;;;;;4.42;100.00;100360.77;5003450;57;1136841;-70
2023/01/05 16:46:29;;;;;;;4.67;2.20;;;;;;;4.42;100.00;100375.17;4976016;57;1136733;-69
2023/01/05 16:51:38;;;;;;;2.75;2.10;;;;;;;4.40;100.00;100391.89;4961715;58;1136750;-66
2023/01/05 16:56:50;;;;;;;5.08;1.52;;;;;;;4.40;100.00;100408.91;4982908;57;1136711;-67
2023/01/05 17:01:55;;;;;;;6.10;3.73;;;;;;;4.38;100.00;100413.37;5034191;56;1136636;-65
2023/01/05 17:07:02;;;;;;;3.00;1.60;;;;;;;4.34;100.00;100415.30;5071942;56;1136854;-67
2023/01/05 17:12:08;;;;;;;4.30;1.60;;;;;;;4.31;100.00;100429.02;5101724;56;1136676;-67
2023/01/05 17:17:15;;;;;;;2.33;1.40;;;;;;;4.30;100.00;100433.87;5121340;56;1136788;-69
2023/01/05 17:22:21;;;;;;;11.63;5.17;;;;;;;4.27;100.00;100458.92;5101894;56;1136884;-68
2023/01/05 17:27:27;;;;;;;21.90;10.23;;;;;;;4.22;100.00;100458.69;5101511;56;1138900;-71
2023/01/05 17:32:33;;;;;;;70.93;43.97;;;;;;;4.25;100.00;100476.02;5108221;56;1140826;-70
2023/01/05 17:37:39;;;;;;;239.87;77.80;;;;;;;4.23;100.00;100481.79;5037904;56;1140757;-68
2023/01/05 17:42:45;;;;;;;205.20;74.20;;;;;;;4.22;100.00;100490.11;5037224;56;1142871;-68
2023/01/05 17:47:52;;;;;;;70.47;23.57;;;;;;;4.21;100.00;100484.95;5083464;56;1143383;-68
2023/01/05 17:53:01;;;;;;;17.33;5.10;;;;;;;4.24;100.00;100496.11;5046717;56;1141088;-70
2023/01/05 17:58:08;;;;;;;11.63;4.22;;;;;;;4.26;100.00;100519.59;5055558;56;1138976;-67
2023/01/05 18:03:20;;;;;;;10.43;4.90;;;;;;;4.27;100.00;100526.98;5095599;56;1138991;-69
2023/01/05 18:08:25;;;;;;;11.67;3.73;;;;;;;4.28;100.00;100541.77;5122311;56;1138952;-67
2023/01/05 18:13:32;;;;;;;3.23;1.43;;;;;;;4.27;100.00;100557.09;5071849;56;1138790;-68
2023/01/05 18:18:39;;;;;;;5.17;1.72;;;;;;;4.22;100.00;100557.31;5088636;56;1136810;-68
2023/01/05 18:23:44;;;;;;;14.23;3.70;;;;;;;4.19;100.00;100568.78;5067561;56;1136796;-69
2023/01/05 18:28:51;;;;;;;9.57;2.87;;;;;;;4.18;100.00;100569.70;5092233;56;1138865;-68
2023/01/05 18:33:58;;;;;;;5.95;2.10;;;;;;;4.18;100.00;100591.11;5094243;56;1136918;-71
2023/01/05 18:39:05;;;;;;;6.07;3.53;;;;;;;4.16;100.00;100596.41;5129435;56;1136703;-70
2023/01/05 18:44:12;;;;;;;8.13;3.27;;;;;;;4.14;100.00;100615.73;5121509;56;1136622;-69
2023/01/05 18:49:17;;;;;;;6.50;3.22;;;;;;;4.17;100.00;100614.28;5122320;56;1136697;-67
2023/01/05 18:54:23;;;;;;;6.93;3.03;;;;;;;4.19;100.00;100628.14;5142475;56;1136710;-69
2023/01/05 18:59:30;;;;;;;5.87;2.47;;;;;;;4.19;100.00;100637.30;5112948;56;1252989;-67
2023/01/05 19:04:36;;;;;;;3.73;2.17;;;;;;;4.18;100.00;100639.53;5069048;56;1136899;-69
2023/01/05 19:09:42;;;;;;;5.73;2.63;;;;;;;4.20;100.00;100648.16;5084769;56;1136823;-68
2023/01/05 19:14:47;;;;;;;5.90;3.53;;;;;;;4.23;100.00;100661.95;5069212;56;1136677;-68
2023/01/05 19:19:56;;;;;;;7.90;4.17;;;;;;;4.24;100.00;100665.42;5056528;56;1136770;-69
2023/01/05 19:25:04;;;;;;;10.43;4.63;;;;;;;4.25;100.00;100676.28;5047187;56;1136893;-68
2023/01/05 19:30:10;;;;;;;10.30;5.30;;;;;;;4.27;100.00;100678.37;5115936;56;1139018;-67
2023/01/05 19:35:16;;;;;;;45.67;28.10;;;;;;;4.27;100.00;100686.22;5120866;56;1139041;-68
2023/01/05 19:40:23;;;;;;;69.07;28.80;;;;;;;4.24;100.00;100690.30;5116651;56;1140946;-71
2023/01/05 19:45:29;;;;;;;543.53;170.47;;;;;;;4.24;100.00;100704.23;5086634;56;1140958;-68
2023/01/05 19:50:35;;;;;;;107.73;33.83;;;;;;;4.24;100.00;100715.16;5057899;57;1145070;-68
2023/01/05 19:55:42;;;;;;;62.47;20.47;;;;;;;4.27;100.00;100735.11;5035046;57;1143063;-70
2023/01/05 20:00:49;;;;;;;102.17;27.17;;;;;;;4.27;100.00;100739.89;5053446;57;1141054;-65
2023/01/05 20:06:08;;;;;;;16.60;7.58;;;;;;;4.28;100.00;100752.52;5059006;56;1143104;-68
2023/01/05 20:11:15;;;;;;;16.20;8.13;;;;;;;4.29;100.00;100756.80;5036182;56;1138949;-68
2023/01/05 20:16:21;;;;;;;10.63;6.23;;;;;;;4.24;100.00;100774.06;5039212;57;1138920;-68
2023/01/05 20:21:28;;;;;;;12.47;6.20;;;;;;;4.20;100.00;100780.36;5060576;57;1138959;-66
2023/01/05 20:26:34;;;;;;;12.47;6.67;;;;;;;4.20;100.00;100790.83;5065614;56;1253290;-68
2023/01/05 20:31:46;;;;;;;15.03;9.07;;;;;;;4.22;100.00;100804.70;5121458;56;1138892;-67
2023/01/05 20:36:53;;;;;;;21.07;9.20;;;;;;;4.24;100.00;100808.09;5054468;57;1138870;-67
2023/01/05 20:42:03;;;;;;;23.07;10.83;;;;;;;4.20;100.00;100821.78;5020966;55;1138903;-68
2023/01/05 20:47:09;;;;;;;11.60;6.83;;;;;;;4.17;100.00;100824.53;5036827;57;1141821;-70
2023/01/05 20:52:17;;;;;;;11.10;6.30;;;;;;;4.17;100.00;100838.93;5076774;57;1140936;-66
2023/01/05 20:57:24;;;;;;;8.67;4.10;;;;;;;4.18;100.00;100854.18;5037312;57;1138823;-67
2023/01/05 21:02:30;;;;;;;8.10;4.07;;;;;;;4.17;100.00;100865.56;5059454;56;1137647;-69
2023/01/05 21:07:37;;;;;;;11.08;6.15;;;;;;;4.12;100.00;100868.42;5141901;55;1137571;-67
2023/01/05 21:12:44;;;;;;;8.93;5.70;;;;;;;4.12;100.00;100880.66;5116670;56;1140947;-69
2023/01/05 21:17:50;;;;;;;10.13;5.43;;;;;;;4.14;100.00;100886.64;5067174;56;1138856;-67
2023/01/05 21:22:56;;;;;;;6.80;4.03;;;;;;;4.12;100.00;100892.44;4983112;58;1138837;-69
2023/01/05 21:28:02;;;;;;;8.83;4.60;;;;;;;4.04;100.00;100912.39;4964002;58;1136763;-67
2023/01/05 21:33:10;;;;;;;7.47;3.77;;;;;;;4.01;100.00;100921.67;4963659;57;1136687;-67
2023/01/05 21:38:15;;;;;;;9.07;5.00;;;;;;;4.01;100.00;100933.91;4983223;58;1136836;-66
2023/01/05 21:43:21;;;;;;;12.87;5.03;;;;;;;4.03;100.00;100947.78;4963403;58;1136753;-66
2023/01/05 21:48:27;;;;;;;9.13;4.23;;;;;;;4.02;100.00;100953.94;4963527;58;1138762;-69
2023/01/05 21:59:00;;;;;;;10.32;3.92;;;;;;;3.96;100.00;100968.61;5014730;57;1138650;-68
2023/01/05 22:04:06;;;;;;;8.27;3.80;;;;;;;3.96;100.00;100975.16;5045018;57;1138648;-67
2023/01/05 22:09:12;;;;;;;10.03;4.40;;;;;;;3.97;100.00;100982.94;5045977;57;1141680;-67
2023/01/05 22:14:18;;;;;;;8.43;4.77;;;;;;;3.98;100.00;100994.23;5065313;56;1138886;-68
2023/01/05 22:19:24;;;;;;;10.20;4.53;;;;;;;3.91;100.00;101006.74;5084300;56;1136884;-68
2023/01/05 22:24:31;;;;;;;5.57;3.53;;;;;;;3.91;100.00;101006.74;5122298;56;1138701;-70
2023/01/05 22:29:36;;;;;;;7.17;3.83;;;;;;;3.91;100.00;101008.05;5143029;56;1136689;-69
2023/01/05 22:34:44;;;;;;;9.38;5.08;;;;;;;3.87;100.00;101013.86;5120434;56;1136694;-68
2023/01/05 22:39:49;;;;;;;9.93;4.23;;;;;;;3.89;100.00;101019.89;5122793;56;1136767;-71
2023/01/05 22:44:55;;;;;;;12.17;4.87;;;;;;;3.90;100.00;101023.36;5142755;56;1136827;-68
2023/01/05 22:50:01;;;;;;;12.60;5.70;;;;;;;3.94;100.00;101033.24;5121828;56;1141024;-67
2023/01/05 22:55:07;;;;;;;11.08;4.60;;;;;;;3.98;100.00;101042.64;5111264;56;1140920;-71
2023/01/05 23:00:13;;;;;;;10.00;4.57;;;;;;;4.00;100.00;101041.67;5121800;56;1141072;-71
2023/01/05 23:05:19;;;;;;;5.60;3.20;;;;;;;4.02;100.00;101045.53;5102048;56;1138695;-71
2023/01/05 23:10:26;;;;;;;5.67;3.27;;;;;;;3.99;100.00;101050.44;5109520;56;1136754;-69
2023/01/05 23:15:32;;;;;;;6.23;3.17;;;;;;;4.00;100.00;101053.91;5142631;56;1136802;-68
2023/01/05 23:20:38;;;;;;;6.20;2.80;;;;;;;3.98;100.00;101057.89;5124026;56;1139108;-70
2023/01/05 23:25:46;;;;;;;7.30;3.17;;;;;;;3.96;100.00;101074.59;5127983;56;1139096;-67
2023/01/05 23:30:56;;;;;;;6.42;2.42;;;;;;;3.98;100.00;101077.52;5147973;56;1138845;-67
2023/01/05 23:36:02;;;;;;;6.57;3.43;;;;;;;4.03;100.00;101083.88;5050429;56;1138720;-70
2023/01/05 23:41:11;;;;;;;5.53;3.27;;;;;;;3.98;100.00;101084.52;5043422;57;1136622;-67
2023/01/05 23:46:20;;;;;;;6.07;3.33;;;;;;;3.98;100.00;101091.91;5062773;57;1138833;-69
2023/01/05 23:51:26;;;;;;;6.77;3.37;;;;;;;4.02;100.00;101091.33;5043014;57;1138841;-71
2023/01/05 23:56:32;;;;;;;7.67;2.90;;;;;;;4.03;100.00;101098.27;5043553;57;1136785;-69
